Time;durP1;ratioP1;P1;durP2;ratioP2;P2;SDS_P1;SDS_P2;PMS_P1;PMS_P2;Temp;Humidity;BMP_temperature;BMP_pressure;BME280_temperature;BME280_humidity;BME280_pressure;Samples;Min_cycle;Max_cycle;Signal;HPM_P1;HPM_P2
2023/07/21 00:01:12;;;;;;;5.60;1.70;;;;;;;14.81;73.13;100527.04;107334;1257;61924;-72
2023/07/21 00:03:39;;;;;;;5.10;1.60;;;;;;;14.82;73.19;100529.09;107617;1256;61367;-73
2023/07/21 00:06:09;;;;;;;5.20;1.70;;;;;;;14.83;73.36;100528.75;107140;1256;74478;-73
2023/07/21 00:08:37;;;;;;;6.50;1.70;;;;;;;14.83;73.22;100524.94;107409;1256;69908;-73
2023/07/21 00:11:04;;;;;;;8.20;2.40;;;;;;;14.84;73.23;100523.45;107066;1256;71586;-73
2023/07/21 00:13:35;;;;;;;5.40;1.80;;;;;;;14.83;73.33;100523.14;106977;1255;61230;-74
2023/07/21 00:16:04;;;;;;;5.20;1.60;;;;;;;14.83;73.27;100522.14;106853;1257;61626;-73
2023/07/21 00:18:32;;;;;;;5.20;1.50;;;;;;;14.83;73.42;100518.33;107006;1257;73870;-73
2023/07/21 00:20:59;;;;;;;6.40;1.70;;;;;;;14.85;73.55;100520.27;107452;1256;70904;-73
2023/07/21 00:23:27;;;;;;;6.20;1.60;;;;;;;14.87;73.64;100515.93;107236;1257;72043;-74
2023/07/21 00:25:55;;;;;;;5.40;1.70;;;;;;;14.89;73.60;100512.98;107300;1257;62501;-73
2023/07/21 00:28:22;;;;;;;4.40;1.50;;;;;;;14.91;73.52;100511.61;107248;1258;61296;-73
2023/07/21 00:30:50;;;;;;;4.70;1.70;;;;;;;14.93;73.55;100512.23;107232;1256;74552;-73
2023/07/21 00:33:17;;;;;;;4.40;1.80;;;;;;;14.96;73.59;100504.55;107036;1256;71677;-73
2023/07/21 00:35:44;;;;;;;6.50;1.90;;;;;;;14.98;73.50;100501.00;106842;1261;73944;-74
2023/07/21 00:38:11;;;;;;;4.60;1.70;;;;;;;14.99;73.54;100501.30;106914;1256;61227;-73
2023/07/21 00:40:38;;;;;;;4.70;1.60;;;;;;;15.01;73.68;100497.05;107128;1257;61302;-73
2023/07/21 00:43:08;;;;;;;7.00;1.80;;;;;;;15.02;73.71;100496.88;107280;1256;74592;-74
2023/07/21 00:45:39;;;;;;;7.20;2.20;;;;;;;15.03;73.78;100494.61;107505;1256;71220;-73
2023/07/21 00:48:10;;;;;;;4.00;1.70;;;;;;;15.04;73.84;100496.05;106999;1256;71316;-73
2023/07/21 00:50:43;;;;;;;5.30;1.80;;;;;;;15.03;73.93;100493.70;107021;1256;61290;-74
2023/07/21 00:53:11;;;;;;;3.50;1.90;;;;;;;15.03;74.17;100492.73;107014;1257;61868;-73
2023/07/21 00:55:38;;;;;;;4.80;2.10;;;;;;;15.00;74.33;100490.77;107418;1258;74709;-73
2023/07/21 00:58:07;;;;;;;5.40;2.00;;;;;;;14.98;74.63;100486.66;106993;1259;69915;-72
2023/07/21 01:00:34;;;;;;;4.70;2.20;;;;;;;14.95;74.79;100486.13;107014;1257;71827;-73
2023/07/21 01:03:03;;;;;;;5.00;2.00;;;;;;;14.95;75.12;100484.41;107179;1256;63223;-72
2023/07/21 01:05:33;;;;;;;5.80;2.10;;;;;;;14.95;75.19;100486.38;107126;1256;61133;-73
2023/07/21 01:08:04;;;;;;;8.90;2.40;;;;;;;14.95;75.57;100485.59;107197;1256;74362;-73
2023/07/21 01:10:36;;;;;;;4.80;2.10;;;;;;;14.95;75.55;100483.83;107673;1259;70735;-73
2023/07/21 01:13:04;;;;;;;5.40;2.20;;;;;;;14.95;75.70;100479.34;107329;1256;73234;-73
2023/07/21 01:15:34;;;;;;;5.00;2.10;;;;;;;14.97;75.65;100483.58;107090;1260;62130;-72
2023/07/21 01:18:01;;;;;;;4.80;2.00;;;;;;;14.98;75.70;100485.19;107233;1257;61313;-74
2023/07/21 01:20:29;;;;;;;4.80;2.00;;;;;;;15.01;75.82;100488.21;107202;1256;72498;-76
2023/07/21 01:23:06;;;;;;;4.80;2.00;;;;;;;15.02;75.85;100483.89;106868;1262;70067;-72
2023/07/21 01:25:35;;;;;;;4.00;2.00;;;;;;;15.05;76.41;100485.64;107291;1256;70805;-72
2023/07/21 01:28:04;;;;;;;4.90;1.80;;;;;;;15.06;76.72;100486.51;107109;1258;60874;-73
2023/07/21 01:30:31;;;;;;;3.60;1.80;;;;;;;15.06;77.18;100488.65;107494;1259;62350;-73
2023/07/21 01:32:59;;;;;;;3.40;1.90;;;;;;;15.04;77.84;100491.94;107052;1259;74659;-73
2023/07/21 01:35:28;;;;;;;4.40;1.90;;;;;;;15.00;78.03;100492.05;107039;1261;70758;-74
2023/07/21 01:37:56;;;;;;;3.60;1.70;;;;;;;14.93;78.55;100499.08;106887;1256;464683;-73
2023/07/21 01:40:25;;;;;;;5.50;2.00;;;;;;;14.88;79.03;100496.17;107363;1257;61865;-74
2023/07/21 01:42:52;;;;;;;4.70;1.80;;;;;;;14.86;79.73;100495.52;107480;1259;62131;-76
2023/07/21 01:45:19;;;;;;;5.50;2.10;;;;;;;14.85;80.19;100496.91;107129;1257;74467;-75
2023/07/21 01:47:47;;;;;;;5.10;2.00;;;;;;;14.82;80.78;100501.41;106919;1262;71168;-74
2023/07/21 01:50:16;;;;;;;3.80;2.00;;;;;;;14.78;81.06;100500.50;107443;1256;72069;-74
2023/07/21 01:52:45;;;;;;;5.50;2.00;;;;;;;14.77;81.52;100500.21;107074;1258;62175;-73
2023/07/21 01:55:30;;;;;;;3.80;1.80;;;;;;;14.75;81.76;100500.91;107666;1258;59560;-74
2023/07/21 01:58:00;;;;;;;4.70;2.00;;;;;;;14.76;81.98;100498.31;106982;1256;74405;-75
2023/07/21 02:00:34;;;;;;;3.80;1.90;;;;;;;14.76;82.01;100493.84;107166;1258;71291;-74
2023/07/21 02:03:17;;;;;;;4.20;2.00;;;;;;;14.77;82.48;100498.23;107292;1260;71500;-74
2023/07/21 02:05:45;;;;;;;6.30;2.40;;;;;;;14.78;82.65;100497.01;107188;1256;61244;-74
2023/07/21 02:08:12;;;;;;;5.60;2.20;;;;;;;14.79;82.99;100494.34;107413;1256;61142;-75
2023/07/21 02:10:40;;;;;;;6.20;2.30;;;;;;;14.81;83.30;100495.85;107345;1257;74606;-75
2023/07/21 02:13:09;;;;;;;5.20;2.00;;;;;;;14.82;83.76;100493.54;107211;1262;69954;-73
2023/07/21 02:15:36;;;;;;;6.80;2.20;;;;;;;14.83;83.83;100497.70;107231;1257;71231;-74
2023/07/21 02:18:03;;;;;;;4.70;2.30;;;;;;;14.83;83.62;100497.41;106990;1257;61824;-73
2023/07/21 02:20:31;;;;;;;6.20;2.20;;;;;;;14.83;84.12;100500.04;106935;1261;61282;-74
2023/07/21 02:22:59;;;;;;;4.90;2.20;;;;;;;14.82;84.02;100502.35;106953;1256;72991;-75
2023/07/21 02:25:26;;;;;;;4.80;2.10;;;;;;;14.82;84.33;100503.33;107317;1260;69856;-74
2023/07/21 02:27:53;;;;;;;5.80;2.30;;;;;;;14.82;84.58;100502.84;107569;1257;71289;-74
2023/07/21 02:30:20;;;;;;;5.10;2.30;;;;;;;14.81;84.74;100503.17;107171;1262;62149;-75
2023/07/21 02:32:47;;;;;;;5.10;2.00;;;;;;;14.79;85.05;100500.98;107486;1257;60932;-73
2023/07/21 02:35:14;;;;;;;4.80;2.20;;;;;;;14.76;85.26;100504.56;107801;1262;74772;-74
2023/07/21 02:37:41;;;;;;;4.90;2.30;;;;;;;14.75;85.70;100510.61;107688;1264;71535;-74
2023/07/21 02:40:09;;;;;;;5.10;2.40;;;;;;;14.73;86.05;100509.79;107749;1260;72218;-74
2023/07/21 02:42:37;;;;;;;4.90;2.30;;;;;;;14.70;86.14;100501.25;107645;1263;61227;-74
2023/07/21 02:45:07;;;;;;;5.50;2.60;;;;;;;14.68;86.33;100495.62;107760;1262;60389;-74
2023/07/21 02:47:34;;;;;;;5.20;2.40;;;;;;;14.68;86.62;100494.80;108225;1254;75158;-74
2023/07/21 02:50:01;;;;;;;6.40;2.50;;;;;;;14.68;86.98;100495.85;108251;1252;69437;-74
2023/07/21 02:52:28;;;;;;;4.90;2.30;;;;;;;14.67;87.25;100489.83;106901;1256;71894;-74
2023/07/21 02:54:55;;;;;;;5.60;2.60;;;;;;;14.66;87.52;100480.71;106719;1256;61173;-74
2023/07/21 02:57:22;;;;;;;4.80;2.10;;;;;;;14.63;87.83;100472.77;106630;1256;61301;-73
2023/07/21 02:59:50;;;;;;;5.90;2.60;;;;;;;14.58;87.82;100469.92;106927;1261;73441;-73
2023/07/21 03:02:17;;;;;;;6.90;2.70;;;;;;;14.51;87.88;100467.27;106811;1256;69844;-74
2023/07/21 03:04:45;;;;;;;5.00;2.70;;;;;;;14.46;88.20;100465.13;106755;1256;71470;-74
2023/07/21 03:07:12;;;;;;;7.80;2.70;;;;;;;14.42;88.34;100463.02;106756;1256;61360;-74
2023/07/21 03:09:39;;;;;;;4.50;2.70;;;;;;;14.37;88.31;100455.73;106736;1256;61941;-75
2023/07/21 03:12:07;;;;;;;5.90;2.70;;;;;;;14.34;88.48;100455.41;106682;1256;74774;-74
2023/07/21 03:14:34;;;;;;;4.30;2.60;;;;;;;14.29;88.40;100453.88;106753;1256;71122;-74
2023/07/21 03:17:01;;;;;;;5.20;2.60;;;;;;;14.26;88.66;100453.39;107278;1256;71236;-75
2023/07/21 03:19:31;;;;;;;6.20;3.00;;;;;;;14.22;88.68;100446.05;107093;1256;61682;-75
2023/07/21 03:21:57;;;;;;;3.60;2.80;;;;;;;14.19;88.85;100440.05;107098;1256;61478;-75
2023/07/21 03:24:25;;;;;;;5.40;2.80;;;;;;;14.17;89.09;100438.36;107069;1256;74013;-72
2023/07/21 03:26:54;;;;;;;5.90;2.80;;;;;;;14.15;89.39;100435.48;108518;1256;71176;-75
2023/07/21 03:29:21;;;;;;;6.40;3.80;;;;;;;14.13;89.59;100432.02;107951;1255;71483;-74
2023/07/21 03:31:48;;;;;;;6.90;2.90;;;;;;;14.11;89.62;100430.28;106904;1257;61159;-74
2023/07/21 03:34:15;;;;;;;6.00;3.20;;;;;;;14.10;89.60;100430.16;107111;1256;61164;-75
2023/07/21 03:36:42;;;;;;;5.90;2.90;;;;;;;14.07;89.98;100428.11;106978;1256;73395;-73
2023/07/21 03:39:09;;;;;;;4.60;2.70;;;;;;;14.08;90.12;100429.42;107091;1255;70038;-74
2023/07/21 03:41:35;;;;;;;5.30;3.00;;;;;;;14.07;90.15;100426.19;106606;1262;71677;-74
2023/07/21 03:44:02;;;;;;;5.00;3.00;;;;;;;14.05;90.49;100426.22;106818;1256;61951;-71
2023/07/21 03:46:29;;;;;;;5.80;3.00;;;;;;;14.04;90.51;100424.48;106725;1255;61358;-73
2023/07/21 03:48:56;;;;;;;6.70;3.40;;;;;;;14.03;90.51;100426.98;106865;1256;72223;-74
2023/07/21 03:51:23;;;;;;;6.60;3.30;;;;;;;14.01;90.85;100422.05;105896;1262;70940;-74
2023/07/21 03:53:50;;;;;;;7.00;3.50;;;;;;;13.99;91.01;100419.48;105769;1257;71737;-74
2023/07/21 03:56:18;;;;;;;9.20;3.80;;;;;;;13.96;90.93;100415.21;105770;1256;61279;-73
2023/07/21 03:58:45;;;;;;;6.90;3.80;;;;;;;13.94;91.20;100419.39;105646;1256;61356;-73
2023/07/21 04:01:12;;;;;;;5.60;3.10;;;;;;;13.94;91.64;100418.93;105770;1256;73892;-73
2023/07/21 04:03:39;;;;;;;5.70;3.40;;;;;;;13.92;91.74;100416.48;105732;1262;70098;-73
2023/07/21 04:06:10;;;;;;;8.10;3.50;;;;;;;13.90;91.74;100417.66;105811;1261;72360;-73
2023/07/21 04:08:37;;;;;;;5.60;3.40;;;;;;;13.90;92.09;100414.10;105771;1257;61328;-73
2023/07/21 04:11:04;;;;;;;6.10;3.30;;;;;;;13.92;92.44;100412.13;105874;1256;61227;-73
2023/07/21 04:13:31;;;;;;;6.90;3.30;;;;;;;13.93;92.45;100408.73;105689;1257;75953;-73
2023/07/21 04:15:59;;;;;;;8.00;3.30;;;;;;;13.95;92.58;100405.61;105767;1257;70174;-73
2023/07/21 04:18:26;;;;;;;6.50;3.70;;;;;;;13.96;92.48;100402.25;105774;1262;71511;-72
2023/07/21 04:20:54;;;;;;;5.50;3.20;;;;;;;13.99;92.59;100404.30;105727;1261;61451;-74
2023/07/21 04:23:21;;;;;;;6.10;3.40;;;;;;;14.04;92.52;100402.25;105776;1262;61273;-74
2023/07/21 04:25:48;;;;;;;5.40;2.90;;;;;;;14.09;92.65;100405.30;105808;1258;74483;-73
2023/07/21 04:28:15;;;;;;;5.50;3.40;;;;;;;14.15;92.72;100406.47;105700;1262;70113;-74
2023/07/21 04:30:42;;;;;;;5.60;3.50;;;;;;;14.21;92.76;100410.05;105761;1256;71476;-73
2023/07/21 04:33:09;;;;;;;5.70;3.30;;;;;;;14.27;92.63;100405.95;105854;1266;61360;-74
2023/07/21 04:35:36;;;;;;;4.60;2.80;;;;;;;14.33;92.57;100403.06;105660;1257;61263;-73
2023/07/21 04:38:03;;;;;;;5.50;3.30;;;;;;;14.37;92.23;100403.77;105699;1260;73169;-74
2023/07/21 04:40:30;;;;;;;6.30;3.10;;;;;;;14.43;92.23;100402.77;105764;1262;70765;-73
2023/07/21 04:42:57;;;;;;;7.10;3.30;;;;;;;14.48;92.24;100402.73;105759;1262;72775;-75
2023/07/21 04:45:24;;;;;;;4.80;3.30;;;;;;;14.53;92.11;100400.13;105926;1259;62110;-74
2023/07/21 04:47:53;;;;;;;4.60;3.20;;;;;;;14.58;92.21;100395.74;105749;1256;61304;-74
2023/07/21 04:50:20;;;;;;;4.80;3.30;;;;;;;14.62;91.96;100392.08;105836;1257;74676;-72
2023/07/21 04:52:47;;;;;;;8.90;3.00;;;;;;;14.68;91.99;100393.17;105758;1257;70513;-73
2023/07/21 04:55:14;;;;;;;5.50;3.10;;;;;;;14.71;91.65;100394.34;106764;1256;73038;-73
2023/07/21 04:57:42;;;;;;;5.40;3.10;;;;;;;14.73;91.42;100396.16;106879;1256;61383;-73
2023/07/21 05:00:14;;;;;;;4.90;3.00;;;;;;;14.75;91.36;100397.44;105788;1256;61241;-73
2023/07/21 05:02:40;;;;;;;5.80;3.10;;;;;;;14.76;91.23;100394.52;105768;1262;73780;-75
2023/07/21 05:05:08;;;;;;;5.00;2.80;;;;;;;14.79;91.01;100389.94;106191;1256;69618;-73
2023/07/21 05:07:34;;;;;;;4.20;3.00;;;;;;;14.78;90.98;100388.55;105783;1256;71553;-74
2023/07/21 05:10:02;;;;;;;4.70;2.80;;;;;;;14.81;90.77;100387.16;105682;1257;61385;-74
2023/07/21 05:12:29;;;;;;;6.60;3.00;;;;;;;14.85;90.94;100390.41;105675;1258;61653;-74
2023/07/21 05:14:57;;;;;;;5.10;2.70;;;;;;;14.92;90.74;100387.06;106008;1261;73505;-75
2023/07/21 05:17:26;;;;;;;4.30;2.80;;;;;;;15.00;90.81;100384.70;105864;1256;70049;-74
2023/07/21 05:19:54;;;;;;;8.10;4.60;;;;;;;15.08;90.40;100379.77;105768;1261;72831;-74
2023/07/21 05:22:20;;;;;;;5.90;3.00;;;;;;;15.17;89.90;100376.31;105687;1256;61338;-73
2023/07/21 05:24:48;;;;;;;6.90;2.60;;;;;;;15.26;89.83;100370.08;105826;1256;61302;-74
2023/07/21 05:27:16;;;;;;;5.20;2.90;;;;;;;15.37;89.62;100378.64;105891;1256;73465;-75
2023/07/21 05:29:43;;;;;;;6.40;2.60;;;;;;;15.47;89.20;100378.08;105764;1256;71373;-75
2023/07/21 05:32:11;;;;;;;5.60;2.60;;;;;;;15.56;88.57;100380.48;105679;1257;72697;-74
2023/07/21 05:34:38;;;;;;;5.30;2.30;;;;;;;15.63;88.12;100378.84;105680;1256;61250;-74
2023/07/21 05:37:05;;;;;;;5.40;2.70;;;;;;;15.71;87.70;100374.95;106049;1257;60750;-75
2023/07/21 05:39:32;;;;;;;8.00;2.80;;;;;;;15.80;87.50;100378.94;106262;1260;74673;-75
2023/07/21 05:41:59;;;;;;;8.60;2.90;;;;;;;15.98;89.39;100380.11;105792;1262;71106;-75
2023/07/21 05:44:26;;;;;;;6.70;2.80;;;;;;;16.35;89.64;100377.52;105847;1257;72636;-74
2023/07/21 05:46:53;;;;;;;5.30;2.30;;;;;;;16.70;87.83;100373.91;105880;1257;61403;-76
2023/07/21 05:49:21;;;;;;;5.30;2.20;;;;;;;17.10;86.61;100374.45;105849;1256;61318;-74
2023/07/21 05:51:50;;;;;;;6.80;2.20;;;;;;;17.43;84.15;100374.09;105928;1261;73437;-74
2023/07/21 05:54:17;;;;;;;6.60;2.10;;;;;;;17.63;82.42;100374.76;105863;1262;71248;-74
2023/07/21 05:56:45;;;;;;;3.90;2.00;;;;;;;17.87;81.24;100383.45;105828;1257;72658;-74
2023/07/21 05:59:11;;;;;;;4.80;2.00;;;;;;;18.09;79.79;100387.19;106000;1262;62463;-74
2023/07/21 06:01:38;;;;;;;3.60;1.90;;;;;;;18.30;78.57;100390.59;105648;1259;61267;-74
2023/07/21 06:04:07;;;;;;;5.30;1.90;;;;;;;18.45;77.30;100389.38;105806;1256;73658;-74
2023/07/21 06:06:34;;;;;;;4.30;2.10;;;;;;;18.54;76.78;100389.95;105719;1257;71132;-73
2023/07/21 06:09:00;;;;;;;10.00;4.80;;;;;;;18.70;75.86;100385.55;105929;1263;71736;-75
2023/07/21 06:11:27;;;;;;;4.80;2.60;;;;;;;18.95;75.28;100379.42;105814;1256;61340;-74
2023/07/21 06:13:54;;;;;;;4.90;2.30;;;;;;;19.23;73.88;100384.11;106375;1258;61600;-75
2023/07/21 06:16:24;;;;;;;3.90;2.20;;;;;;;19.28;72.27;100384.58;105812;1261;74555;-75
2023/07/21 06:18:52;;;;;;;4.70;1.80;;;;;;;19.37;72.30;100381.98;106258;1262;71306;-75
2023/07/21 06:21:20;;;;;;;4.60;1.70;;;;;;;19.38;70.36;100382.20;105896;1262;72366;-72
2023/07/21 06:23:47;;;;;;;4.90;1.70;;;;;;;19.30;71.04;100380.13;105643;1256;61728;-71
2023/07/21 06:26:15;;;;;;;6.60;2.10;;;;;;;19.51;71.07;100384.14;105832;1256;61874;-74
2023/07/21 06:28:41;;;;;;;3.80;1.80;;;;;;;19.51;69.99;100371.90;106972;1256;74600;-72
2023/07/21 06:31:10;;;;;;;26.90;23.50;;;;;;;19.66;70.58;100366.88;108862;1256;71641;-72
2023/07/21 06:33:37;;;;;;;5.90;3.10;;;;;;;19.91;69.87;100368.82;106125;1256;72736;-72
2023/07/21 06:36:05;;;;;;;8.80;5.90;;;;;;;20.16;68.83;100370.83;107534;1256;61143;-72
2023/07/21 06:38:32;;;;;;;5.00;3.20;;;;;;;20.14;66.94;100368.80;105873;1260;61650;-73
2023/07/21 06:40:59;;;;;;;4.90;1.70;;;;;;;20.07;67.08;100368.98;106249;1262;72583;-72
2023/07/21 06:43:26;;;;;;;4.00;1.90;;;;;;;20.05;66.99;100365.87;105725;1257;69244;-74
2023/07/21 06:45:53;;;;;;;10.70;5.90;;;;;;;19.98;65.96;100365.75;105783;1257;71460;-74
2023/07/21 06:48:20;;;;;;;4.20;2.00;;;;;;;19.90;67.18;100363.95;105874;1261;61775;-74
2023/07/21 06:50:47;;;;;;;3.80;1.80;;;;;;;19.99;67.00;100359.63;105777;1257;61389;-74
2023/07/21 06:53:17;;;;;;;5.90;1.60;;;;;;;20.08;66.65;100359.77;105926;1257;75009;-71
2023/07/21 06:55:46;;;;;;;4.60;1.70;;;;;;;20.21;66.14;100354.53;106059;1257;70886;-73
2023/07/21 06:58:13;;;;;;;2.40;1.40;;;;;;;20.12;64.11;100351.38;107587;1262;72478;-73
2023/07/21 07:00:40;;;;;;;5.90;1.80;;;;;;;20.00;64.75;100350.65;105691;1257;63249;-73
2023/07/21 07:03:07;;;;;;;5.40;3.20;;;;;;;19.98;64.92;100353.16;106015;1259;61362;-73
2023/07/21 07:05:34;;;;;;;17.40;13.80;;;;;;;19.94;64.91;100354.67;105821;1261;74475;-73
2023/07/21 07:08:01;;;;;;;2.90;1.40;;;;;;;19.98;65.07;100352.45;105848;1262;70010;-72
2023/07/21 07:10:28;;;;;;;7.70;5.60;;;;;;;19.98;64.69;100349.16;105898;1260;71575;-73
2023/07/21 07:12:55;;;;;;;3.80;1.50;;;;;;;19.93;64.08;100344.84;105840;1258;61470;-73
2023/07/21 07:15:23;;;;;;;3.10;1.60;;;;;;;19.88;65.11;100344.13;105860;1256;61258;-73
2023/07/21 07:17:50;;;;;;;32.90;27.60;;;;;;;20.04;65.90;100337.27;105962;1261;75170;-73
2023/07/21 07:20:17;;;;;;;3.10;1.60;;;;;;;20.28;65.49;100334.42;105763;1263;69792;-73
2023/07/21 07:22:44;;;;;;;12.70;9.80;;;;;;;20.34;64.80;100332.46;105867;1262;71570;-74
2023/07/21 07:25:11;;;;;;;10.70;7.40;;;;;;;20.45;64.30;100331.36;105987;1258;61393;-73
2023/07/21 07:27:38;;;;;;;3.40;1.50;;;;;;;20.57;64.24;100329.20;105887;1257;61235;-73
2023/07/21 07:30:06;;;;;;;2.80;1.40;;;;;;;20.65;62.59;100329.83;106145;1262;74811;-73
2023/07/21 07:32:34;;;;;;;4.70;1.40;;;;;;;20.52;61.69;100330.39;105843;1263;69597;-73
2023/07/21 07:35:01;;;;;;;5.70;2.20;;;;;;;20.34;61.38;100333.70;106094;1256;71537;-73
2023/07/21 07:37:28;;;;;;;2.20;1.20;;;;;;;20.26;62.20;100333.65;105943;1257;62072;-73
2023/07/21 07:39:55;;;;;;;4.80;1.70;;;;;;;20.26;62.29;100332.77;105834;1256;61384;-73
2023/07/21 07:42:23;;;;;;;4.50;2.80;;;;;;;20.25;62.43;100334.29;105846;1258;74767;-73
2023/07/21 07:44:54;;;;;;;3.80;1.20;;;;;;;20.35;62.44;100334.36;106056;1256;70168;-73
2023/07/21 07:47:22;;;;;;;3.60;1.30;;;;;;;20.35;62.21;100333.39;105808;1257;72728;-73
2023/07/21 07:49:50;;;;;;;13.00;2.40;;;;;;;20.36;61.79;100331.38;105752;1258;61324;-74
2023/07/21 07:52:18;;;;;;;4.30;1.90;;;;;;;20.39;62.00;100326.98;105843;1261;61270;-73
2023/07/21 07:54:45;;;;;;;3.60;1.60;;;;;;;20.47;62.33;100331.34;105959;1262;73604;-74
2023/07/21 07:57:11;;;;;;;2.10;1.30;;;;;;;20.62;62.29;100331.18;105913;1256;70658;-73
2023/07/21 07:59:38;;;;;;;3.50;1.60;;;;;;;20.67;61.27;100336.59;105845;1260;72672;-72
2023/07/21 08:02:06;;;;;;;5.30;1.50;;;;;;;20.59;60.92;100340.02;107147;1257;62516;-73
2023/07/21 08:04:33;;;;;;;4.80;1.60;;;;;;;20.54;62.08;100332.09;106687;1257;61199;-73
2023/07/21 08:07:00;;;;;;;86.00;67.80;;;;;;;20.58;61.56;100332.41;108297;1263;73738;-73
2023/07/21 08:09:27;;;;;;;6.70;4.00;;;;;;;20.52;61.25;100333.19;106498;1262;70730;-73
2023/07/21 08:11:54;;;;;;;10.10;5.90;;;;;;;20.53;61.38;100332.23;107143;1263;72754;-73
2023/07/21 08:14:24;;;;;;;6.70;2.00;;;;;;;20.46;62.20;100326.30;106468;1257;61833;-73
2023/07/21 08:16:51;;;;;;;5.60;1.90;;;;;;;20.45;62.55;100320.52;106157;1258;61832;-75
2023/07/21 08:19:19;;;;;;;4.10;1.80;;;;;;;20.61;61.54;100319.46;105786;1257;74735;-74
2023/07/21 08:21:49;;;;;;;8.00;2.30;;;;;;;20.71;60.56;100317.88;105890;1257;70092;-74
2023/07/21 08:24:16;;;;;;;4.20;1.90;;;;;;;20.82;60.68;100321.50;105672;1261;71325;-75
2023/07/21 08:26:43;;;;;;;8.60;2.60;;;;;;;20.98;60.85;100315.27;106473;1257;61370;-75
2023/07/21 08:29:10;;;;;;;7.20;2.00;;;;;;;21.10;61.34;100312.70;106666;1260;61176;-74
2023/07/21 08:31:37;;;;;;;6.40;2.10;;;;;;;21.25;60.53;100313.32;105737;1257;75638;-74
2023/07/21 08:34:04;;;;;;;4.40;1.80;;;;;;;21.35;58.61;100312.61;105839;1262;71181;-73
2023/07/21 08:36:30;;;;;;;3.80;1.70;;;;;;;21.38;57.97;100310.52;105948;1258;71452;-74
2023/07/21 08:39:17;;;;;;;5.60;1.90;;;;;;;21.40;58.06;100308.40;105730;1261;61302;-74
2023/07/21 08:41:50;;;;;;;3.20;1.80;;;;;;;21.48;58.18;100311.95;105855;1257;61398;-73
2023/07/21 08:44:17;;;;;;;3.30;1.60;;;;;;;21.46;56.57;100310.41;106233;1260;74438;-73
2023/07/21 08:46:44;;;;;;;3.80;1.70;;;;;;;21.46;57.00;100307.98;106301;1262;69586;-72
2023/07/21 08:49:12;;;;;;;2.40;1.60;;;;;;;21.59;56.94;100304.65;105914;1262;71955;-72
2023/07/21 08:51:38;;;;;;;14.20;6.20;;;;;;;21.65;56.21;100312.14;105839;1258;61256;-72
2023/07/21 08:54:06;;;;;;;3.20;1.50;;;;;;;21.78;56.82;100309.64;105797;1263;61273;-72
2023/07/21 08:56:32;;;;;;;3.40;1.80;;;;;;;22.00;57.15;100304.83;105879;1260;72247;-73
2023/07/21 08:58:59;;;;;;;4.00;2.10;;;;;;;22.17;56.16;100303.91;105671;1262;70796;-73
2023/07/21 09:01:26;;;;;;;4.90;2.40;;;;;;;22.34;54.91;100304.73;105729;1261;71597;-72
2023/07/21 09:03:53;;;;;;;4.00;1.70;;;;;;;22.41;53.77;100300.81;105748;1257;61290;-71
2023/07/21 09:06:20;;;;;;;3.60;1.90;;;;;;;22.37;52.84;100300.31;105914;1262;61293;-73
2023/07/21 09:08:50;;;;;;;2.40;1.40;;;;;;;22.35;52.79;100296.08;105918;1262;74637;-72
2023/07/21 09:11:16;;;;;;;3.60;2.50;;;;;;;22.35;52.14;100297.11;106097;1257;70016;-72
2023/07/21 09:13:53;;;;;;;6.20;4.60;;;;;;;22.48;52.54;100296.36;107709;1262;71475;-71
2023/07/21 09:16:20;;;;;;;17.90;15.30;;;;;;;22.72;52.56;100298.23;106915;1258;61412;-73
2023/07/21 09:18:48;;;;;;;3.10;1.70;;;;;;;23.07;52.40;100298.13;107387;1260;61575;-72
2023/07/21 09:21:23;;;;;;;3.60;1.80;;;;;;;23.27;49.42;100299.14;106804;1260;74696;-71
2023/07/21 09:23:51;;;;;;;2.80;1.80;;;;;;;23.46;50.04;100289.57;106013;1262;70526;-74
2023/07/21 09:26:23;;;;;;;3.40;1.20;;;;;;;23.59;48.93;100289.41;106994;1257;71550;-75
2023/07/21 09:28:51;;;;;;;2.50;1.80;;;;;;;23.54;46.95;100287.56;107685;1257;61164;-72
2023/07/21 09:31:33;;;;;;;3.00;1.30;;;;;;;23.49;47.30;100284.91;107881;1257;59311;-73
2023/07/21 09:34:07;;;;;;;3.20;1.30;;;;;;;23.41;46.74;100287.73;107794;1260;72605;-75
2023/07/21 09:36:34;;;;;;;3.60;1.70;;;;;;;23.37;47.09;100284.98;107568;1262;69784;-74
2023/07/21 09:39:03;;;;;;;3.60;2.30;;;;;;;23.30;47.00;100281.94;106999;1263;71861;-74
2023/07/21 09:41:34;;;;;;;2.60;1.30;;;;;;;23.31;47.56;100280.48;105775;1257;61257;-75
2023/07/21 09:44:01;;;;;;;2.90;1.30;;;;;;;23.24;47.52;100282.25;105986;1263;61785;-74
2023/07/21 09:46:28;;;;;;;3.00;1.30;;;;;;;23.19;47.32;100282.90;106479;1257;74661;-72
2023/07/21 09:48:55;;;;;;;2.20;1.30;;;;;;;23.30;47.66;100277.23;105743;1257;69763;-74
2023/07/21 09:51:26;;;;;;;3.10;1.30;;;;;;;23.25;46.72;100285.02;105929;1261;71481;-74
2023/07/21 09:53:53;;;;;;;2.80;1.40;;;;;;;23.14;46.92;100283.05;105736;1257;61277;-77
2023/07/21 09:56:21;;;;;;;2.60;1.50;;;;;;;23.03;48.08;100280.50;105938;1257;61265;-72
2023/07/21 09:58:52;;;;;;;2.50;1.50;;;;;;;23.02;48.47;100279.14;105885;1263;74029;-75
2023/07/21 10:01:19;;;;;;;3.00;1.60;;;;;;;22.97;49.00;100275.31;105776;1257;72019;-74
2023/07/21 10:03:46;;;;;;;2.80;1.50;;;;;;;22.90;49.53;100278.38;105938;1258;72474;-75
2023/07/21 10:06:15;;;;;;;11.50;5.00;;;;;;;22.80;50.91;100276.26;106098;1261;61331;-75
2023/07/21 10:08:42;;;;;;;17.20;14.50;;;;;;;22.84;51.16;100274.80;105942;1257;61329;-75
2023/07/21 10:11:09;;;;;;;2.90;1.30;;;;;;;22.85;51.12;100273.23;106228;1257;73744;-75
2023/07/21 10:13:44;;;;;;;5.00;2.80;;;;;;;22.89;51.31;100269.45;105836;1260;69867;-75
2023/07/21 10:16:11;;;;;;;11.80;10.50;;;;;;;22.94;51.34;100272.77;105844;1260;70935;-74
2023/07/21 10:19:12;;;;;;;5.60;4.00;;;;;;;22.99;51.02;100270.94;105589;1257;61365;-73
2023/07/21 10:21:49;;;;;;;3.00;1.70;;;;;;;23.01;50.80;100276.10;106085;1261;61235;-73
2023/07/21 10:24:27;;;;;;;4.40;2.80;;;;;;;23.02;50.83;100278.48;105904;1258;73201;-75
2023/07/21 10:27:05;;;;;;;6.40;3.10;;;;;;;23.07;51.20;100285.42;106111;1260;69897;-75
2023/07/21 10:29:33;;;;;;;3.60;1.60;;;;;;;23.02;51.40;100279.41;106031;1260;71162;-74
2023/07/21 10:32:04;;;;;;;2.30;1.50;;;;;;;22.99;53.37;100275.88;106218;1263;61313;-72
2023/07/21 10:34:40;;;;;;;46.80;41.60;;;;;;;23.04;54.70;100278.20;105988;1258;61665;-74
2023/07/21 10:37:07;;;;;;;3.80;1.90;;;;;;;23.26;54.45;100276.52;106285;1261;75293;-74
2023/07/21 10:39:43;;;;;;;5.40;3.40;;;;;;;23.50;53.73;100277.11;106114;1258;70305;-73
2023/07/21 10:42:11;;;;;;;85.40;74.40;;;;;;;23.84;53.83;100276.24;106179;1257;72711;-73
2023/07/21 10:44:40;;;;;;;5.10;3.40;;;;;;;24.26;52.43;100270.66;106137;1258;61619;-74
2023/07/21 10:47:13;;;;;;;4.80;2.20;;;;;;;24.60;50.83;100264.15;106086;1257;61230;-73
2023/07/21 10:49:41;;;;;;;55.40;49.20;;;;;;;24.81;49.34;100259.59;106374;1262;74225;-75
2023/07/21 10:52:09;;;;;;;15.30;10.90;;;;;;;25.16;48.86;100251.27;106316;1261;70189;-75
2023/07/21 10:54:37;;;;;;;5.50;4.10;;;;;;;25.56;47.94;100253.23;106162;1257;71907;-72
2023/07/21 10:57:04;;;;;;;19.30;17.20;;;;;;;25.90;46.11;100248.46;106374;1258;61260;-72
2023/07/21 10:59:33;;;;;;;4.10;2.10;;;;;;;26.17;44.87;100249.75;106141;1257;61775;-70
2023/07/21 11:02:02;;;;;;;2.60;1.30;;;;;;;26.09;41.94;100248.25;106131;1262;73836;-74
2023/07/21 11:04:30;;;;;;;6.60;4.40;;;;;;;25.72;42.11;100248.08;106542;1257;69913;-74
2023/07/21 11:06:59;;;;;;;8.10;5.80;;;;;;;25.45;44.56;100252.35;106040;1257;72661;-72
2023/07/21 11:09:27;;;;;;;2.20;1.20;;;;;;;25.31;44.92;100252.64;105886;1257;61499;-72
2023/07/21 11:11:57;;;;;;;3.60;2.30;;;;;;;25.06;43.54;100256.71;106066;1257;61596;-72
2023/07/21 11:14:25;;;;;;;3.80;2.30;;;;;;;24.75;43.51;100258.30;106391;1257;74436;-74
2023/07/21 11:16:57;;;;;;;3.60;1.10;;;;;;;24.44;43.65;100256.07;105906;1260;69752;-75
2023/07/21 11:19:26;;;;;;;3.30;2.30;;;;;;;24.09;44.16;100257.55;105922;1258;72729;-73
2023/07/21 11:21:54;;;;;;;8.50;6.70;;;;;;;23.79;45.32;100264.83;105841;1257;60617;-73